createdAt,value
2023-04-27T00:01:48.543Z,1.77
2023-04-27T00:04:16.966Z,1.90
2023-04-27T00:06:45.133Z,1.98
2023-04-27T00:09:13.490Z,1.88
2023-04-27T00:11:41.917Z,1.80
2023-04-27T00:14:09.979Z,1.98
2023-04-27T00:16:37.938Z,2.08
2023-04-27T00:19:06.927Z,1.90
2023-04-27T00:21:35.200Z,1.90
2023-04-27T00:24:03.381Z,1.60
2023-04-27T00:26:31.393Z,1.90
2023-04-27T00:29:00.893Z,2.00
2023-04-27T00:31:28.906Z,1.80
2023-04-27T00:33:57.548Z,1.80
2023-04-27T00:36:25.638Z,2.00
2023-04-27T00:38:53.638Z,1.80
2023-04-27T00:41:23.093Z,1.80
2023-04-27T00:43:50.980Z,1.85
2023-04-27T00:46:19.989Z,1.80
2023-04-27T00:48:48.438Z,1.90
2023-04-27T00:51:16.770Z,1.83
2023-04-27T00:53:44.777Z,1.83
2023-04-27T00:56:13.398Z,2.00
2023-04-27T00:58:41.361Z,1.85
2023-04-27T01:01:11.054Z,2.17
2023-04-27T01:03:39.249Z,2.08
2023-04-27T01:06:07.605Z,1.98
2023-04-27T01:08:36.787Z,2.15
2023-04-27T01:11:04.716Z,1.83
2023-04-27T01:13:32.735Z,1.60
2023-04-27T01:16:00.484Z,1.90
2023-04-27T01:18:28.349Z,1.90
2023-04-27T01:20:58.182Z,1.92
2023-04-27T01:23:26.824Z,1.95
2023-04-27T01:25:54.783Z,2.10
2023-04-27T01:28:22.731Z,1.83
2023-04-27T01:30:50.817Z,1.83
2023-04-27T01:33:18.679Z,1.85
2023-04-27T01:35:49.283Z,2.00
2023-04-27T01:38:17.887Z,1.98
2023-04-27T01:40:45.813Z,1.85
2023-04-27T01:43:14.293Z,2.03
2023-04-27T01:45:42.200Z,1.92
2023-04-27T01:48:10.258Z,1.92
2023-04-27T01:50:37.968Z,1.92
2023-04-27T01:53:07.925Z,2.20
2023-04-27T01:55:35.975Z,1.77
2023-04-27T01:58:05.435Z,1.98
2023-04-27T02:00:33.807Z,1.90
2023-04-27T02:03:01.892Z,2.00
2023-04-27T02:05:29.902Z,1.90
2023-04-27T02:07:57.839Z,2.13
2023-04-27T02:10:25.703Z,1.70
2023-04-27T02:12:58.084Z,1.70
2023-04-27T02:15:26.932Z,2.30
2023-04-27T02:17:54.979Z,1.98
2023-04-27T02:20:23.130Z,1.92
2023-04-27T02:22:51.141Z,1.90
2023-04-27T02:25:19.170Z,1.90
2023-04-27T02:27:47.141Z,1.77
2023-04-27T02:30:15.599Z,2.10
2023-04-27T02:32:44.320Z,2.05
2023-04-27T02:35:12.641Z,1.80
2023-04-27T02:37:41.038Z,1.90
2023-04-27T02:40:09.660Z,1.80
2023-04-27T02:42:39.170Z,1.80
2023-04-27T02:45:08.326Z,2.00
2023-04-27T02:47:37.753Z,1.70
2023-04-27T02:50:05.782Z,1.77
2023-04-27T02:52:35.788Z,1.80
2023-04-27T02:55:04.145Z,1.70
2023-04-27T02:57:32.621Z,1.70
2023-04-27T03:00:02.753Z,1.55
2023-04-27T03:02:31.838Z,2.10
2023-04-27T03:05:00.037Z,2.00
2023-04-27T03:07:28.100Z,1.75
2023-04-27T03:09:56.309Z,1.75
2023-04-27T03:12:24.371Z,1.67
2023-04-27T03:14:53.332Z,1.90
2023-04-27T03:17:21.178Z,1.88
2023-04-27T03:19:51.897Z,1.85
2023-04-27T03:22:20.004Z,1.92
2023-04-27T03:24:47.984Z,1.85
2023-04-27T03:27:16.970Z,1.50
2023-04-27T03:29:44.980Z,1.73
2023-04-27T03:32:13.029Z,1.63
2023-04-27T03:34:41.505Z,1.77
2023-04-27T03:37:09.814Z,1.40
2023-04-27T03:39:38.489Z,1.85
2023-04-27T03:42:06.605Z,1.30
2023-04-27T03:44:36.485Z,1.98
2023-04-27T03:47:09.273Z,1.80
2023-04-27T03:49:39.493Z,1.67
2023-04-27T03:52:08.836Z,1.95
2023-04-27T03:54:37.316Z,1.67
2023-04-27T03:57:05.447Z,1.67
2023-04-27T03:59:33.386Z,1.65
2023-04-27T04:02:01.608Z,1.75
2023-04-27T04:04:30.030Z,1.73
2023-04-27T04:06:59.357Z,1.48
2023-04-27T04:09:27.561Z,1.90
2023-04-27T04:11:56.037Z,1.70
2023-04-27T04:14:24.008Z,1.73
2023-04-27T04:16:52.933Z,1.80
2023-04-27T04:19:22.442Z,1.60
2023-04-27T04:21:50.832Z,1.80
2023-04-27T04:24:20.090Z,1.83
2023-04-27T04:26:48.838Z,1.40
2023-04-27T04:29:17.044Z,1.65
2023-04-27T04:31:45.389Z,1.60
2023-04-27T04:34:14.682Z,1.70
2023-04-27T04:36:42.942Z,1.60
2023-04-27T04:39:12.901Z,1.50
2023-04-27T04:41:41.194Z,1.60
2023-04-27T04:44:11.577Z,1.80
2023-04-27T04:46:40.155Z,1.70
2023-04-27T04:49:08.662Z,1.63
2023-04-27T04:51:37.246Z,2.17
2023-04-27T04:54:06.861Z,1.88
2023-04-27T04:56:34.901Z,2.80
2023-04-27T04:59:04.342Z,2.42
2023-04-27T05:01:33.403Z,2.40
2023-04-27T05:04:01.738Z,2.15
2023-04-27T05:06:30.624Z,2.40
2023-04-27T05:08:58.718Z,2.80
2023-04-27T05:11:26.963Z,2.38
2023-04-27T05:13:55.258Z,2.30
2023-04-27T05:16:23.178Z,2.50
2023-04-27T05:18:51.372Z,2.45
2023-04-27T05:21:21.135Z,2.20
2023-04-27T05:23:49.712Z,2.70
2023-04-27T05:26:18.993Z,2.42
2023-04-27T05:28:49.847Z,2.92
2023-04-27T05:31:17.960Z,2.70
2023-04-27T05:33:46.559Z,2.70
2023-04-27T05:36:14.620Z,2.65
2023-04-27T05:38:43.600Z,2.80
2023-04-27T05:41:11.632Z,2.78
2023-04-27T05:43:39.918Z,2.78
2023-04-27T05:46:08.324Z,2.97
2023-04-27T05:53:07.207Z,2.42
2023-04-27T05:55:35.725Z,2.67
2023-04-27T05:58:07.726Z,2.50
2023-04-27T06:00:38.485Z,2.65
2023-04-27T06:03:06.717Z,2.50
2023-04-27T06:05:35.125Z,2.55
2023-04-27T06:08:03.365Z,2.47
2023-04-27T06:10:31.733Z,2.65
2023-04-27T06:13:00.439Z,2.22
2023-04-27T06:15:28.356Z,2.30
2023-04-27T06:17:56.896Z,2.53
2023-04-27T06:20:25.109Z,1.98
2023-04-27T06:22:53.247Z,2.33
2023-04-27T06:25:21.847Z,2.08
2023-04-27T06:27:50.939Z,2.30
2023-04-27T06:30:19.031Z,2.00
2023-04-27T06:32:47.143Z,2.28
2023-04-27T06:35:15.775Z,2.20
2023-04-27T06:37:44.912Z,2.28
2023-04-27T06:40:13.687Z,2.17
2023-04-27T06:42:41.824Z,2.25
2023-04-27T06:45:10.818Z,2.50
2023-04-27T06:47:39.159Z,2.20
2023-04-27T06:50:07.632Z,1.95
2023-04-27T06:52:35.889Z,2.00
2023-04-27T06:55:04.187Z,1.88
2023-04-27T06:57:32.282Z,2.00
2023-04-27T07:00:00.743Z,2.60
2023-04-27T07:02:28.890Z,2.30
2023-04-27T07:04:57.373Z,2.10
2023-04-27T07:07:25.637Z,2.30
2023-04-27T07:09:53.771Z,2.28
2023-04-27T07:12:21.864Z,1.92
2023-04-27T07:14:51.197Z,2.20
2023-04-27T07:17:19.286Z,2.17
2023-04-27T07:19:47.375Z,2.05
2023-04-27T07:22:16.260Z,2.20
2023-04-27T07:24:44.283Z,2.40
2023-04-27T07:27:12.604Z,2.30
2023-04-27T07:29:40.757Z,2.13
2023-04-27T07:32:09.437Z,2.22
2023-04-27T07:34:52.003Z,2.20
2023-04-27T07:37:21.896Z,2.17
2023-04-27T07:39:52.317Z,2.10
2023-04-27T07:42:22.656Z,2.08
2023-04-27T07:44:50.986Z,2.03
2023-04-27T07:47:19.156Z,2.30
2023-04-27T07:49:47.548Z,2.30
2023-04-27T07:52:16.118Z,2.20
2023-04-27T07:54:44.390Z,1.73
2023-04-27T07:57:12.610Z,2.10
2023-04-27T07:59:40.904Z,2.20
2023-04-27T08:02:19.301Z,1.77
2023-04-27T08:04:50.066Z,1.80
2023-04-27T08:07:19.507Z,1.85
2023-04-27T08:09:50.967Z,2.10
2023-04-27T08:12:19.567Z,2.50
2023-04-27T08:14:47.686Z,2.08
2023-04-27T08:17:17.639Z,2.08
2023-04-27T08:19:45.960Z,1.90
2023-04-27T08:22:14.574Z,1.90
2023-04-27T08:24:42.878Z,1.98
2023-04-27T08:27:11.210Z,1.88
2023-04-27T08:29:39.188Z,2.03
2023-04-27T08:41:23.325Z,2.20
2023-04-27T08:43:53.626Z,2.13
2023-04-27T08:46:24.111Z,2.17
2023-04-27T08:48:57.061Z,2.00
2023-04-27T08:51:27.753Z,1.80
2023-04-27T08:53:57.677Z,2.08
2023-04-27T08:56:28.166Z,2.97
2023-04-27T08:58:57.300Z,2.13
2023-04-27T09:01:27.798Z,2.42
2023-04-27T09:03:57.811Z,2.30
2023-04-27T09:06:34.558Z,2.30
2023-04-27T09:09:03.929Z,2.45
2023-04-27T09:11:36.283Z,1.98
2023-04-27T09:14:21.135Z,2.15
2023-04-27T09:16:57.779Z,2.58
2023-04-27T09:19:29.095Z,2.38
2023-04-27T09:22:14.957Z,2.15
2023-04-27T09:24:53.076Z,2.50
2023-04-27T09:27:24.712Z,2.30
2023-04-27T09:29:52.820Z,2.20
2023-04-27T09:32:21.176Z,2.10
2023-04-27T09:34:49.423Z,2.20
2023-04-27T09:37:18.127Z,2.33
2023-04-27T09:39:46.622Z,2.10
2023-04-27T09:46:45.583Z,2.30
2023-04-27T09:49:16.260Z,1.92
2023-04-27T09:51:44.567Z,2.05
2023-04-27T09:54:14.870Z,2.15
2023-04-27T09:56:57.891Z,2.08
2023-04-27T10:00:08.257Z,2.10
2023-04-27T10:02:53.707Z,1.90
2023-04-27T10:05:49.181Z,2.10
2023-04-27T10:08:18.082Z,2.05
2023-04-27T10:10:50.030Z,1.95
2023-04-27T10:13:26.561Z,2.20
2023-04-27T10:15:54.904Z,2.60
2023-04-27T10:18:32.635Z,1.95
2023-04-27T10:21:11.536Z,2.13
2023-04-27T10:23:51.423Z,2.35
2023-04-27T10:26:27.327Z,2.33
2023-04-27T10:29:10.412Z,1.90
2023-04-27T10:31:45.360Z,2.07
2023-04-27T10:34:21.198Z,2.22
2023-04-27T10:36:49.757Z,2.03
2023-04-27T10:39:30.066Z,2.35
2023-04-27T10:42:08.890Z,2.00
2023-04-27T10:49:11.072Z,1.95
2023-04-27T10:51:40.150Z,2.30
2023-04-27T10:54:09.068Z,2.30
2023-04-27T10:56:37.403Z,2.05
2023-04-27T10:59:06.531Z,1.88
2023-04-27T11:01:38.213Z,2.20
2023-04-27T11:04:07.417Z,3.05
2023-04-27T11:06:43.632Z,2.53
2023-04-27T11:09:12.701Z,2.17
2023-04-27T11:11:46.745Z,2.40
2023-04-27T11:14:21.013Z,1.95
2023-04-27T11:16:49.660Z,2.45
2023-04-27T11:19:17.802Z,2.10
2023-04-27T11:21:46.385Z,2.10
2023-04-27T11:24:15.649Z,2.30
2023-04-27T11:26:44.104Z,2.05
2023-04-27T11:29:16.724Z,1.98
2023-04-27T11:31:51.227Z,1.98
2023-04-27T11:34:25.008Z,1.90
2023-04-27T11:39:37.991Z,2.17
2023-04-27T11:42:24.912Z,2.30
2023-04-27T11:44:54.635Z,2.70
2023-04-27T11:47:23.811Z,2.60
2023-04-27T11:50:02.969Z,2.00
2023-04-27T11:52:36.331Z,2.15
2023-04-27T11:55:05.229Z,2.13
2023-04-27T11:57:36.128Z,2.13
2023-04-27T12:00:12.168Z,2.00
2023-04-27T12:02:44.774Z,2.85
2023-04-27T12:05:13.935Z,2.70
2023-04-27T12:07:43.534Z,3.00
2023-04-27T12:10:11.988Z,3.60
2023-04-27T12:12:40.311Z,2.90
2023-04-27T12:15:09.370Z,3.28
2023-04-27T12:17:38.592Z,3.15
2023-04-27T12:20:07.401Z,3.15
2023-04-27T12:22:35.563Z,3.25
2023-04-27T12:25:03.790Z,2.85
2023-04-27T12:27:32.406Z,3.05
2023-04-27T12:30:00.736Z,2.78
2023-04-27T12:32:28.941Z,2.50
2023-04-27T12:34:57.181Z,3.00
2023-04-27T12:37:26.975Z,2.33
2023-04-27T12:39:55.397Z,2.35
2023-04-27T12:42:24.531Z,2.60
2023-04-27T12:44:53.555Z,3.20
2023-04-27T12:47:43.093Z,2.70
2023-04-27T12:50:10.854Z,2.50
2023-04-27T12:52:39.069Z,2.90
2023-04-27T12:59:39.741Z,3.10
2023-04-27T13:02:10.513Z,2.88
2023-04-27T13:04:38.754Z,2.72
2023-04-27T13:07:07.141Z,2.72
2023-04-27T13:09:36.363Z,2.72
2023-04-27T13:12:04.612Z,2.90
2023-04-27T13:14:34.485Z,2.80
2023-04-27T13:17:02.782Z,2.78
2023-04-27T13:19:31.381Z,3.05
2023-04-27T13:21:59.614Z,3.25
2023-04-27T13:24:29.476Z,3.00
2023-04-27T13:26:57.552Z,2.63
2023-04-27T13:29:25.709Z,2.83
2023-04-27T13:31:56.987Z,2.60
2023-04-27T13:34:25.854Z,2.45
2023-04-27T13:36:54.196Z,2.47
2023-04-27T13:39:22.357Z,2.53
2023-04-27T13:41:50.491Z,2.25
2023-04-27T13:44:18.591Z,2.72
2023-04-27T13:46:46.697Z,2.38
2023-04-27T13:49:14.928Z,2.25
2023-04-27T13:51:43.019Z,2.30
2023-04-27T13:54:11.570Z,2.20
2023-04-27T13:56:40.048Z,2.03
2023-04-27T13:59:12.880Z,2.72
2023-04-27T14:01:44.106Z,2.30
2023-04-27T14:04:12.432Z,2.42
2023-04-27T14:06:40.750Z,2.38
2023-04-27T14:09:09.459Z,2.45
2023-04-27T14:11:52.376Z,2.33
2023-04-27T14:14:24.114Z,2.03
2023-04-27T14:16:53.424Z,2.22
2023-04-27T14:19:21.686Z,2.00
2023-04-27T14:21:50.923Z,2.20
2023-04-27T14:24:19.079Z,1.90
2023-04-27T14:26:47.809Z,2.35
2023-04-27T14:29:16.195Z,2.60
2023-04-27T14:31:45.744Z,1.90
2023-04-27T14:34:18.982Z,2.10
2023-04-27T14:36:48.445Z,2.33
2023-04-27T14:39:17.038Z,1.80
2023-04-27T14:41:45.137Z,1.85
2023-04-27T14:44:13.236Z,2.03
2023-04-27T14:46:41.597Z,1.98
2023-04-27T14:49:09.681Z,1.80
2023-04-27T14:51:37.805Z,1.55
2023-04-27T14:54:06.485Z,1.70
2023-04-27T14:56:34.874Z,2.22
2023-04-27T14:59:03.356Z,1.80
2023-04-27T15:01:32.132Z,1.55
2023-04-27T15:04:01.516Z,1.83
2023-04-27T15:06:30.473Z,1.88
2023-04-27T15:08:58.574Z,1.40
2023-04-27T15:11:26.569Z,1.90
2023-04-27T15:13:54.690Z,1.58
2023-04-27T15:16:22.941Z,1.65
2023-04-27T15:18:51.669Z,1.80
2023-04-27T15:21:19.757Z,1.80
2023-04-27T15:23:47.862Z,1.50
2023-04-27T15:26:15.997Z,1.83
2023-04-27T15:28:44.304Z,1.80
2023-04-27T15:31:12.488Z,1.67
2023-04-27T15:33:40.858Z,1.83
2023-04-27T15:36:09.112Z,1.92
2023-04-27T15:38:37.179Z,1.50
2023-04-27T15:41:08.169Z,1.60
2023-04-27T15:43:36.701Z,1.85
2023-04-27T15:46:05.683Z,2.05
2023-04-27T15:48:33.863Z,1.80
2023-04-27T15:51:02.853Z,1.80
2023-04-27T15:53:32.102Z,1.80
2023-04-27T15:56:00.365Z,1.60
2023-04-27T15:58:28.591Z,1.83
2023-04-27T16:00:56.710Z,1.48
2023-04-27T16:03:24.880Z,1.67
2023-04-27T16:05:53.026Z,1.88
2023-04-27T16:08:22.565Z,1.83
2023-04-27T16:10:50.774Z,2.00
2023-04-27T16:13:18.865Z,2.05
2023-04-27T16:15:47.142Z,1.98
2023-04-27T16:18:15.117Z,2.00
2023-04-27T16:20:43.303Z,2.40
2023-04-27T16:23:11.450Z,2.30
2023-04-27T16:25:39.516Z,2.05
2023-04-27T16:28:07.717Z,1.90
2023-04-27T16:30:38.103Z,2.08
2023-04-27T16:33:06.256Z,2.03
2023-04-27T16:35:35.134Z,2.03
2023-04-27T16:38:06.006Z,2.30
2023-04-27T16:40:34.443Z,2.38
2023-04-27T16:43:02.955Z,2.22
2023-04-27T16:45:30.916Z,2.20
2023-04-27T16:47:59.916Z,2.30
2023-04-27T16:50:28.156Z,2.13
2023-04-27T16:53:03.955Z,2.05
2023-04-27T16:55:32.631Z,2.20
2023-04-27T16:58:00.847Z,2.30
2023-04-27T17:00:29.433Z,2.58
2023-04-27T17:02:57.600Z,2.15
2023-04-27T17:05:26.136Z,2.50
2023-04-27T17:07:53.990Z,2.30
2023-04-27T17:10:22.204Z,2.60
2023-04-27T17:12:50.409Z,2.45
2023-04-27T17:15:20.746Z,2.17
2023-04-27T17:17:48.771Z,2.20
2023-04-27T17:20:16.979Z,2.30
2023-04-27T17:22:46.318Z,2.45
2023-04-27T17:25:14.414Z,2.08
2023-04-27T17:27:42.477Z,2.63
2023-04-27T17:30:11.152Z,2.22
2023-04-27T17:32:39.253Z,2.25
2023-04-27T17:35:07.584Z,2.03
2023-04-27T17:37:35.795Z,2.17
2023-04-27T17:40:07.975Z,2.10
2023-04-27T17:42:36.524Z,2.35
2023-04-27T17:45:04.763Z,2.30
2023-04-27T17:47:33.873Z,2.55
2023-04-27T17:50:01.854Z,2.60
2023-04-27T17:52:30.000Z,2.45
2023-04-27T17:54:58.010Z,2.28
2023-04-27T17:57:26.117Z,2.28
2023-04-27T17:59:54.487Z,2.60
2023-04-27T18:02:22.845Z,2.50
2023-04-27T18:04:51.447Z,2.60
2023-04-27T18:07:19.997Z,2.70
2023-04-27T18:09:48.011Z,2.38
2023-04-27T18:12:16.149Z,2.30
2023-04-27T18:14:44.348Z,2.40
2023-04-27T18:17:12.309Z,2.67
2023-04-27T18:19:40.462Z,2.50
2023-04-27T18:22:08.883Z,2.45
2023-04-27T18:24:37.018Z,2.65
2023-04-27T18:27:05.073Z,2.65
2023-04-27T18:29:33.347Z,3.00
2023-04-27T18:32:05.817Z,2.50
2023-04-27T18:34:34.377Z,2.60
2023-04-27T18:37:02.373Z,2.60
2023-04-27T18:39:30.796Z,2.40
2023-04-27T18:41:58.799Z,2.88
2023-04-27T18:44:27.077Z,3.30
2023-04-27T18:46:55.236Z,3.22
2023-04-27T18:49:23.483Z,2.90
2023-04-27T18:51:51.749Z,3.20
2023-04-27T18:54:19.929Z,3.80
2023-04-27T18:56:52.998Z,3.20
2023-04-27T18:59:21.041Z,3.70
2023-04-27T19:01:49.192Z,3.35
2023-04-27T19:04:17.468Z,3.45
2023-04-27T19:06:47.368Z,3.55
2023-04-27T19:09:15.890Z,3.30
2023-04-27T19:11:44.543Z,3.70
2023-04-27T19:14:15.010Z,3.38
2023-04-27T19:16:43.348Z,3.28
2023-04-27T19:19:11.355Z,4.30
2023-04-27T19:21:42.086Z,3.50
2023-04-27T19:24:10.656Z,3.47
2023-04-27T19:26:38.997Z,3.80
2023-04-27T19:29:07.487Z,4.20
2023-04-27T19:31:37.139Z,3.67
2023-04-27T19:34:05.306Z,3.75
2023-04-27T19:36:33.705Z,3.60
2023-04-27T19:39:01.737Z,3.42
2023-04-27T19:41:29.786Z,3.22
2023-04-27T19:43:57.781Z,3.42
2023-04-27T19:46:26.841Z,3.60
2023-04-27T19:48:54.857Z,3.40
2023-04-27T19:51:23.482Z,3.58
2023-04-27T19:53:51.349Z,3.60
2023-04-27T19:56:19.493Z,3.60
2023-04-27T19:58:47.509Z,3.30
2023-04-27T20:01:15.528Z,3.58
2023-04-27T20:03:43.637Z,3.33
2023-04-27T20:06:11.910Z,3.45
2023-04-27T20:08:40.213Z,3.55
2023-04-27T20:11:08.318Z,3.88
2023-04-27T20:13:36.274Z,3.45
2023-04-27T20:16:05.205Z,3.90
2023-04-27T20:18:33.354Z,3.05
2023-04-27T20:21:01.387Z,3.15
2023-04-27T20:23:29.526Z,3.35
2023-04-27T20:25:57.410Z,3.13
2023-04-27T20:28:25.449Z,3.55
2023-04-27T20:30:53.433Z,3.47
2023-04-27T20:33:21.704Z,3.30
2023-04-27T20:35:55.450Z,3.65
2023-04-27T20:38:25.194Z,3.35
2023-04-27T20:40:53.583Z,3.28
2023-04-27T20:43:21.576Z,3.80
2023-04-27T20:45:49.674Z,3.53
2023-04-27T20:48:17.649Z,3.33
2023-04-27T20:50:45.972Z,3.40
2023-04-27T20:53:14.177Z,3.40
2023-04-27T20:55:42.842Z,3.30
2023-04-27T20:58:10.872Z,3.50
2023-04-27T21:00:38.873Z,3.40
2023-04-27T21:03:08.267Z,3.08
2023-04-27T21:05:36.493Z,3.17
2023-04-27T21:08:04.418Z,3.10
2023-04-27T21:10:32.253Z,3.35
2023-04-27T21:13:01.675Z,3.00
2023-04-27T21:15:29.745Z,3.45
2023-04-27T21:17:57.771Z,3.33
2023-04-27T21:20:26.005Z,3.42
2023-04-27T21:22:54.054Z,3.35
2023-04-27T21:25:23.743Z,3.25
2023-04-27T21:27:52.105Z,3.17
2023-04-27T21:30:20.254Z,3.38
2023-04-27T21:32:48.813Z,3.10
2023-04-27T21:35:16.846Z,3.17
2023-04-27T21:37:44.873Z,3.10
2023-04-27T21:40:13.122Z,2.83
2023-04-27T21:42:41.869Z,3.17
2023-04-27T21:45:10.260Z,2.60
2023-04-27T21:47:38.632Z,3.17
2023-04-27T21:50:07.315Z,2.53
2023-04-27T21:52:35.581Z,2.97
2023-04-27T21:55:03.651Z,2.97
2023-04-27T21:57:32.800Z,3.08
2023-04-27T22:00:00.764Z,3.22
2023-04-27T22:02:29.622Z,2.70
2023-04-27T22:04:59.248Z,3.28
2023-04-27T22:07:28.436Z,2.88
2023-04-27T22:09:56.220Z,2.85
2023-04-27T22:12:23.942Z,2.58
2023-04-27T22:14:51.746Z,3.10
2023-04-27T22:17:19.733Z,2.97
2023-04-27T22:19:47.695Z,2.88
2023-04-27T22:22:15.721Z,2.67
2023-04-27T22:24:43.624Z,2.83
2023-04-27T22:27:11.640Z,3.00
2023-04-27T22:29:39.589Z,2.65
2023-04-27T22:32:07.677Z,2.80
2023-04-27T22:34:36.152Z,2.60
2023-04-27T22:37:04.406Z,3.08
2023-04-27T22:39:32.558Z,2.58
2023-04-27T22:42:00.607Z,2.67
2023-04-27T22:44:28.359Z,2.88
2023-04-27T22:46:56.315Z,2.47
2023-04-27T22:49:24.315Z,2.78
2023-04-27T22:51:54.143Z,2.60
2023-04-27T22:54:21.929Z,2.80
2023-04-27T22:56:49.780Z,2.65
2023-04-27T22:59:23.069Z,2.70
2023-04-27T23:01:51.828Z,2.63
2023-04-27T23:04:20.374Z,2.58
2023-04-27T23:06:48.780Z,2.40
2023-04-27T23:09:16.665Z,2.42
2023-04-27T23:11:44.656Z,2.50
2023-04-27T23:14:12.780Z,2.95
2023-04-27T23:16:41.212Z,2.80
2023-04-27T23:19:09.220Z,2.47
2023-04-27T23:21:37.393Z,2.80
2023-04-27T23:24:06.027Z,2.58
2023-04-27T23:26:33.951Z,2.70
2023-04-27T23:29:01.888Z,2.38
2023-04-27T23:31:29.832Z,2.50
2023-04-27T23:33:58.348Z,2.40
2023-04-27T23:36:26.610Z,2.35
2023-04-27T23:38:54.540Z,2.60
2023-04-27T23:41:23.415Z,2.65
2023-04-27T23:43:51.131Z,2.28
2023-04-27T23:46:19.073Z,2.30
2023-04-27T23:48:47.345Z,2.28
2023-04-27T23:51:15.124Z,2.58
2023-04-27T23:53:43.321Z,2.30
2023-04-27T23:56:18.503Z,2.53
2023-04-27T23:58:46.405Z,2.83
